Time;durP1;ratioP1;P1;durP2;ratioP2;P2;SDS_P1;SDS_P2;PMS_P1;PMS_P2;Temp;Humidity;BMP_temperature;BMP_pressure;BME280_temperature;BME280_humidity;BME280_pressure;Samples;Min_cycle;Max_cycle;Signal;HPM_P1;HPM_P2
2021/01/24 00:01:44;;;;;;;5.68;2.03;;;;;;;10.11;73.70;99539.09;4916952;29;20028;-71
2021/01/24 00:04:09;;;;;;;9.82;2.58;;;;;;;10.21;73.48;99553.09;4921762;29;20035;-73
2021/01/24 00:06:35;;;;;;;9.38;2.83;;;;;;;10.25;73.96;99559.19;4934514;29;20039;-68
2021/01/24 00:09:00;;;;;;;13.02;2.70;;;;;;;10.24;73.35;99549.72;4934414;29;20117;-69
2021/01/24 00:11:26;;;;;;;13.23;4.35;;;;;;;10.37;73.23;99554.34;4934618;29;20541;-68
2021/01/24 00:13:51;;;;;;;8.20;2.40;;;;;;;10.25;73.51;99543.72;4934130;29;20410;-70
2021/01/24 00:16:17;;;;;;;9.52;2.35;;;;;;;10.30;73.79;99557.59;4934189;28;20375;-70
2021/01/24 00:18:42;;;;;;;10.20;2.55;;;;;;;10.29;73.61;99535.19;4934115;29;20028;-69
2021/01/24 00:21:09;;;;;;;11.98;3.17;;;;;;;10.34;73.68;99554.22;4933657;29;20031;-70
2021/01/24 00:23:34;;;;;;;16.05;3.38;;;;;;;10.11;73.82;99497.84;4934092;29;20118;-68
2021/01/24 00:25:59;;;;;;;10.25;2.78;;;;;;;10.26;74.08;99525.69;4928460;29;20034;-70
2021/01/24 00:28:26;;;;;;;10.65;2.63;;;;;;;10.12;74.27;99524.47;4917201;29;20032;-70
2021/01/24 00:30:51;;;;;;;16.38;3.58;;;;;;;10.15;73.87;99533.16;4917373;29;20032;-69
2021/01/24 00:33:17;;;;;;;9.05;2.38;;;;;;;10.11;73.74;99533.09;4914863;29;20036;-71
2021/01/24 00:35:42;;;;;;;12.20;2.78;;;;;;;10.14;73.66;99522.81;4916897;29;20127;-70
2021/01/24 00:38:08;;;;;;;10.55;2.97;;;;;;;10.15;73.07;99504.78;4918717;29;20063;-70
2021/01/24 00:40:34;;;;;;;7.22;2.75;;;;;;;10.11;73.44;99495.25;4925115;29;20034;-68
2021/01/24 00:42:59;;;;;;;14.68;2.53;;;;;;;10.36;73.04;99526.81;4917999;29;20103;-71
2021/01/24 00:45:24;;;;;;;8.52;2.47;;;;;;;10.33;73.46;99530.16;4915429;29;20032;-70
2021/01/24 00:47:50;;;;;;;9.38;2.97;;;;;;;10.23;73.55;99509.25;4917866;29;20035;-69
2021/01/24 00:50:15;;;;;;;14.15;2.97;;;;;;;10.27;74.01;99518.81;4919982;29;20028;-71
2021/01/24 00:52:41;;;;;;;9.05;2.92;;;;;;;10.27;74.27;99511.06;4917028;29;20107;-70
2021/01/24 00:55:07;;;;;;;8.02;2.47;;;;;;;10.19;74.70;99504.06;4919900;28;20426;-67
2021/01/24 00:57:32;;;;;;;11.60;2.35;;;;;;;10.25;74.97;99502.44;4942295;28;20126;-74
2021/01/24 00:59:58;;;;;;;10.77;3.03;;;;;;;10.16;75.42;99487.63;4932520;29;20107;-69
2021/01/24 01:02:23;;;;;;;7.30;2.45;;;;;;;10.10;75.99;99484.91;4934573;29;20040;-69
2021/01/24 01:04:49;;;;;;;10.07;2.75;;;;;;;10.11;76.23;99484.94;4936608;29;20035;-69
2021/01/24 01:07:14;;;;;;;10.43;2.67;;;;;;;10.13;76.05;99477.22;4937374;29;20032;-68
2021/01/24 01:09:39;;;;;;;9.15;2.40;;;;;;;10.19;76.44;99474.78;4937769;29;20438;-67
2021/01/24 01:12:05;;;;;;;12.13;2.88;;;;;;;10.15;76.78;99460.94;4936093;28;20035;-71
2021/01/24 01:14:31;;;;;;;10.45;3.20;;;;;;;10.01;76.95;99434.00;4935444;28;20024;-70
2021/01/24 01:16:56;;;;;;;10.07;2.53;;;;;;;10.05;77.12;99440.97;4935635;29;20032;-67
2021/01/24 01:19:22;;;;;;;10.60;2.80;;;;;;;9.99;77.24;99439.13;4928328;29;20483;-68
2021/01/24 01:21:47;;;;;;;9.82;2.30;;;;;;;10.03;77.76;99435.78;4919048;29;20039;-69
2021/01/24 01:24:13;;;;;;;11.77;3.05;;;;;;;10.04;78.19;99453.00;4919372;29;20027;-69
2021/01/24 01:26:38;;;;;;;11.38;2.50;;;;;;;9.95;78.21;99423.56;4918224;29;20035;-70
2021/01/24 01:29:03;;;;;;;11.68;2.72;;;;;;;9.95;78.73;99447.59;4932351;28;20031;-68
2021/01/24 01:31:29;;;;;;;11.02;3.30;;;;;;;9.73;79.70;99424.75;4919762;28;20031;-70
2021/01/24 01:33:54;;;;;;;17.40;2.88;;;;;;;9.85;80.07;99436.22;4923169;29;20059;-65
2021/01/24 01:36:20;;;;;;;11.73;2.75;;;;;;;9.72;80.38;99423.91;4931982;29;20031;-69
2021/01/24 01:38:45;;;;;;;10.40;2.92;;;;;;;9.74;80.73;99419.63;4919610;29;20087;-70
2021/01/24 01:41:11;;;;;;;9.75;2.88;;;;;;;9.80;80.84;99429.22;4921034;29;20036;-70
2021/01/24 01:43:36;;;;;;;11.52;2.95;;;;;;;9.73;81.44;99425.63;4928349;29;20038;-71
2021/01/24 01:46:03;;;;;;;13.70;4.38;;;;;;;9.49;81.57;99382.13;4930637;28;20505;-71
2021/01/24 01:48:31;;;;;;;10.82;3.08;;;;;;;9.66;82.15;99418.59;4935974;29;20110;-69
2021/01/24 01:50:57;;;;;;;7.35;2.63;;;;;;;9.43;83.44;99400.00;4936896;29;20478;-68
2021/01/24 01:53:22;;;;;;;10.07;4.15;;;;;;;9.39;84.53;99419.66;4938071;29;20035;-71
2021/01/24 01:55:48;;;;;;;16.00;3.92;;;;;;;9.38;84.94;99423.94;4961144;28;20070;-70
2021/01/24 01:58:13;;;;;;;11.38;2.67;;;;;;;9.35;85.25;99417.84;4936071;29;20566;-70
2021/01/24 02:00:39;;;;;;;9.32;3.15;;;;;;;9.33;85.94;99424.66;4950369;29;20040;-68
2021/01/24 02:03:28;;;;;;;14.00;3.10;;;;;;;9.35;86.96;99412.69;4936062;29;20020;-68
2021/01/24 02:06:16;;;;;;;11.60;2.97;;;;;;;9.24;87.99;99381.50;4936479;29;20168;-74
2021/01/24 02:09:10;;;;;;;10.30;2.75;;;;;;;9.26;89.44;99381.53;4934824;28;20453;-68
2021/01/24 02:12:08;;;;;;;10.20;2.60;;;;;;;9.22;89.82;99348.00;4972376;28;20628;-72
2021/01/24 02:14:39;;;;;;;9.10;2.30;;;;;;;9.27;89.08;99365.25;4940202;28;20752;-70
2021/01/24 02:17:10;;;;;;;7.63;3.25;;;;;;;9.37;89.16;99372.38;4963200;28;20040;-71
2021/01/24 02:19:46;;;;;;;15.18;4.97;;;;;;;9.39;89.68;99386.19;4953454;28;20118;-69
2021/01/24 02:22:13;;;;;;;11.15;3.05;;;;;;;9.37;89.93;99383.56;4953477;28;20046;-66
2021/01/24 02:24:48;;;;;;;13.10;3.40;;;;;;;9.35;90.03;99386.94;4972222;28;20030;-66
2021/01/24 02:27:20;;;;;;;9.50;2.65;;;;;;;9.34;90.43;99387.78;4958525;28;20038;-68
2021/01/24 02:30:21;;;;;;;7.88;2.50;;;;;;;9.34;89.95;99374.88;4953773;28;20114;-70
2021/01/24 02:32:52;;;;;;;11.40;3.60;;;;;;;9.33;90.09;99368.88;4874042;29;20041;-69
2021/01/24 02:35:19;;;;;;;9.15;2.75;;;;;;;9.29;89.96;99355.88;4876224;29;20518;-67
2021/01/24 02:37:45;;;;;;;7.40;2.72;;;;;;;9.32;89.58;99345.63;4874825;29;20063;-68
2021/01/24 02:40:12;;;;;;;8.55;2.55;;;;;;;9.27;89.51;99331.78;4874436;29;20036;-69
2021/01/24 02:42:39;;;;;;;7.32;2.25;;;;;;;9.12;89.23;99315.16;4875929;29;20041;-70
2021/01/24 02:45:06;;;;;;;7.25;2.60;;;;;;;9.27;89.12;99344.66;4876450;29;20029;-72
2021/01/24 02:47:32;;;;;;;8.15;2.88;;;;;;;9.29;89.12;99330.97;4874606;29;20129;-69
2021/01/24 02:49:59;;;;;;;9.13;2.40;;;;;;;9.05;89.17;99284.94;4854360;29;20046;-71
2021/01/24 02:52:26;;;;;;;6.47;2.22;;;;;;;9.20;89.36;99310.19;4840055;29;20141;-71
2021/01/24 02:54:52;;;;;;;6.93;2.40;;;;;;;9.27;89.27;99311.19;4839917;29;20042;-69
2021/01/24 02:57:18;;;;;;;6.30;2.40;;;;;;;9.23;89.54;99323.13;4839973;29;20038;-70
2021/01/24 02:59:44;;;;;;;7.80;2.80;;;;;;;9.13;89.59;99303.13;4839020;29;20042;-69
2021/01/24 03:02:10;;;;;;;7.32;2.53;;;;;;;9.18;90.11;99315.31;4855139;29;20597;-66
2021/01/24 03:04:35;;;;;;;7.72;2.28;;;;;;;9.18;89.64;99317.00;4857837;29;20080;-69
2021/01/24 03:07:01;;;;;;;8.13;2.50;;;;;;;9.20;88.78;99311.03;4857977;29;20034;-68
2021/01/24 03:09:27;;;;;;;8.38;2.85;;;;;;;9.31;88.37;99324.19;4909310;29;20083;-69
2021/01/24 03:11:54;;;;;;;5.63;2.35;;;;;;;9.33;87.68;99319.06;4934172;29;20027;-68
2021/01/24 03:14:24;;;;;;;8.02;2.10;;;;;;;9.37;87.29;99307.97;4935258;29;20030;-69
2021/01/24 03:16:54;;;;;;;5.00;2.03;;;;;;;9.39;86.51;99296.00;4930100;29;20456;-68
2021/01/24 03:19:21;;;;;;;4.07;2.00;;;;;;;9.45;86.38;99295.28;4917675;29;20454;-70
2021/01/24 03:21:49;;;;;;;6.75;2.20;;;;;;;9.41;86.36;99291.78;4925613;28;20086;-68
2021/01/24 03:24:17;;;;;;;5.47;1.95;;;;;;;9.37;86.20;99280.53;4934716;29;20024;-70
2021/01/24 03:26:44;;;;;;;6.78;1.80;;;;;;;9.50;85.76;99307.44;4934875;29;20114;-69
2021/01/24 03:29:10;;;;;;;6.25;2.03;;;;;;;9.48;85.80;99291.09;4934798;29;20490;-72
2021/01/24 03:31:35;;;;;;;5.90;2.20;;;;;;;9.47;85.52;99315.09;4934926;29;20024;-67
2021/01/24 03:34:04;;;;;;;5.85;1.95;;;;;;;9.46;84.80;99302.16;4934498;28;20019;-68
2021/01/24 03:36:30;;;;;;;8.00;2.53;;;;;;;9.43;84.67;99300.38;4929925;29;20042;-67
2021/01/24 03:38:55;;;;;;;9.00;3.38;;;;;;;9.53;84.13;99311.78;4929425;28;20048;-70
2021/01/24 03:41:21;;;;;;;5.35;1.83;;;;;;;9.50;83.65;99301.41;4919611;29;20024;-68
2021/01/24 03:43:46;;;;;;;7.82;2.10;;;;;;;9.57;83.23;99294.69;4930734;28;20519;-70
2021/01/24 03:46:12;;;;;;;7.28;1.58;;;;;;;9.45;82.93;99274.69;4915921;29;20032;-68
2021/01/24 03:48:37;;;;;;;6.65;2.17;;;;;;;9.60;83.37;99295.63;4916097;29;20032;-70
2021/01/24 03:51:03;;;;;;;4.82;1.80;;;;;;;9.63;83.13;99316.31;4919919;29;20402;-67
2021/01/24 03:53:29;;;;;;;4.10;1.63;;;;;;;9.62;82.98;99298.22;4930104;29;20028;-71
2021/01/24 03:55:54;;;;;;;8.50;2.08;;;;;;;9.57;82.49;99289.53;4926490;29;20090;-70
2021/01/24 03:58:19;;;;;;;3.60;1.70;;;;;;;9.49;82.68;99268.75;4934478;29;20031;-71
2021/01/24 04:00:45;;;;;;;8.52;2.00;;;;;;;9.61;82.90;99293.91;4934648;29;20470;-70
2021/01/24 04:03:10;;;;;;;3.33;1.50;;;;;;;9.65;82.82;99280.28;4934435;29;20576;-70
2021/01/24 04:05:36;;;;;;;3.78;1.40;;;;;;;9.45;82.34;99259.22;4964493;28;20036;-70
2021/01/24 04:08:01;;;;;;;6.70;1.75;;;;;;;9.70;82.13;99297.56;4934661;29;20023;-70
2021/01/24 04:10:27;;;;;;;5.68;1.80;;;;;;;9.77;81.72;99301.16;4934225;28;20027;-69
2021/01/24 04:12:52;;;;;;;5.15;1.60;;;;;;;9.54;81.66;99256.84;4934411;28;20032;-69
2021/01/24 04:15:18;;;;;;;3.22;1.50;;;;;;;9.69;81.78;99293.25;4934548;29;20030;-66
2021/01/24 04:17:44;;;;;;;4.35;1.80;;;;;;;9.70;81.73;99302.72;4934107;28;20023;-68
2021/01/24 04:20:10;;;;;;;5.18;2.10;;;;;;;9.48;82.08;99259.28;4934521;29;20111;-70
2021/01/24 04:22:36;;;;;;;4.43;1.90;;;;;;;9.70;82.52;99317.31;4931621;28;20038;-73
2021/01/24 04:25:02;;;;;;;7.35;2.17;;;;;;;9.67;82.73;99314.66;4929188;29;20421;-69
2021/01/24 04:27:28;;;;;;;6.80;2.20;;;;;;;9.67;82.42;99310.38;4921947;29;20031;-70
2021/01/24 04:29:53;;;;;;;7.68;2.35;;;;;;;9.70;82.24;99301.84;4918412;29;20467;-71
2021/01/24 04:32:18;;;;;;;7.55;2.13;;;;;;;9.71;82.19;99301.88;4925220;29;20536;-72
2021/01/24 04:34:44;;;;;;;7.53;2.10;;;;;;;9.70;82.30;99309.59;4928005;29;20611;-71
2021/01/24 04:37:09;;;;;;;6.95;2.25;;;;;;;9.67;82.21;99312.97;4914579;29;20031;-72
2021/01/24 04:39:35;;;;;;;5.22;2.33;;;;;;;9.28;81.90;99253.69;4919303;29;20055;-72
2021/01/24 04:42:00;;;;;;;5.80;2.17;;;;;;;9.66;81.69;99330.97;4916161;29;20066;-72
2021/01/24 04:44:26;;;;;;;6.38;2.80;;;;;;;9.69;81.85;99346.50;4916785;29;20024;-73
2021/01/24 04:46:52;;;;;;;6.38;2.35;;;;;;;9.70;81.94;99353.41;4916102;29;20099;-73
2021/01/24 04:49:18;;;;;;;4.85;1.88;;;;;;;9.57;81.42;99331.66;4915190;29;20497;-71
2021/01/24 04:51:43;;;;;;;6.50;1.92;;;;;;;9.71;81.36;99347.41;4914821;29;20039;-73
2021/01/24 04:54:10;;;;;;;4.28;2.20;;;;;;;9.74;81.05;99350.03;4924582;29;20561;-71
2021/01/24 04:56:38;;;;;;;5.70;2.25;;;;;;;9.75;81.41;99353.50;4930042;29;20506;-72
2021/01/24 04:59:04;;;;;;;5.28;2.22;;;;;;;9.68;81.42;99352.47;4943671;28;20039;-70
2021/01/24 05:01:31;;;;;;;5.00;2.10;;;;;;;9.72;81.40;99369.78;4938870;28;20409;-70
2021/01/24 05:03:58;;;;;;;7.53;2.30;;;;;;;9.65;81.66;99363.59;4932498;29;20549;-69
2021/01/24 05:06:24;;;;;;;6.32;2.50;;;;;;;9.48;82.03;99350.34;4933855;29;20076;-74
2021/01/24 05:08:49;;;;;;;7.07;2.70;;;;;;;9.51;82.15;99362.44;4933453;29;20109;-71
2021/01/24 05:11:15;;;;;;;14.35;5.22;;;;;;;9.48;82.45;99377.78;4933905;29;20032;-70
2021/01/24 05:13:40;;;;;;;8.15;2.90;;;;;;;9.23;82.27;99347.19;4933762;29;20087;-69
2021/01/24 05:16:07;;;;;;;7.38;3.08;;;;;;;9.26;82.94;99363.53;4933947;28;20107;-70
2021/01/24 05:18:33;;;;;;;9.68;4.63;;;;;;;9.46;82.56;99400.06;4934044;29;20039;-72
2021/01/24 05:21:01;;;;;;;10.88;3.63;;;;;;;9.14;82.87;99384.72;4934054;29;20028;-75
2021/01/24 05:23:27;;;;;;;9.85;4.35;;;;;;;9.25;83.63;99431.34;4934041;29;20110;-71
2021/01/24 05:25:57;;;;;;;8.63;4.38;;;;;;;9.18;83.83;99430.28;4934013;29;20107;-69
2021/01/24 05:28:26;;;;;;;9.60;4.65;;;;;;;9.24;83.81;99427.88;4934161;29;20124;-69
2021/01/24 05:31:03;;;;;;;11.73;4.88;;;;;;;9.35;83.28;99423.00;4934091;29;20395;-76
2021/01/24 05:33:28;;;;;;;12.00;4.72;;;;;;;9.43;82.77;99426.63;4934202;29;20050;-70
2021/01/24 05:35:53;;;;;;;9.27;4.95;;;;;;;9.31;82.34;99400.56;4937474;29;20486;-72
2021/01/24 05:38:23;;;;;;;6.55;3.90;;;;;;;9.48;82.23;99429.31;4937362;29;20521;-73
2021/01/24 05:40:49;;;;;;;7.15;3.97;;;;;;;9.46;82.17;99423.25;4937607;29;20059;-70
2021/01/24 05:43:16;;;;;;;9.73;3.92;;;;;;;9.36;82.48;99425.59;4937520;29;20070;-70
2021/01/24 05:45:42;;;;;;;8.15;3.70;;;;;;;9.45;82.48;99445.56;4942846;29;20041;-70
2021/01/24 05:48:09;;;;;;;8.55;4.05;;;;;;;9.37;82.75;99465.09;4948598;28;20034;-69
2021/01/24 05:50:35;;;;;;;8.38;3.80;;;;;;;9.37;83.01;99471.16;4946248;28;20540;-69
2021/01/24 05:53:04;;;;;;;11.35;4.10;;;;;;;9.26;83.70;99484.56;4936887;28;20063;-74
2021/01/24 05:55:34;;;;;;;13.13;5.72;;;;;;;9.19;84.08;99486.97;4939737;29;20029;-77
2021/01/24 05:58:14;;;;;;;14.80;6.63;;;;;;;9.24;84.14;99494.84;4945764;28;20466;-74
2021/01/24 06:00:42;;;;;;;12.82;6.63;;;;;;;9.23;84.21;99495.66;4947137;29;20023;-75
2021/01/24 06:03:09;;;;;;;13.68;6.57;;;;;;;9.26;84.20;99507.75;4945799;29;20106;-74
2021/01/24 06:05:34;;;;;;;41.75;24.33;;;;;;;9.21;84.57;99499.91;4945082;28;20486;-74
2021/01/24 06:08:00;;;;;;;41.45;23.00;;;;;;;9.10;84.55;99479.03;4947566;29;20031;-77
2021/01/24 06:10:26;;;;;;;22.23;16.08;;;;;;;9.36;84.29;99517.47;4955797;28;20493;-73
2021/01/24 06:12:53;;;;;;;11.60;8.20;;;;;;;9.35;84.21;99503.72;4955808;28;20031;-76
2021/01/24 06:15:23;;;;;;;13.95;8.45;;;;;;;9.37;84.54;99507.22;4955461;28;20044;-78
2021/01/24 06:17:49;;;;;;;7.85;4.53;;;;;;;9.39;84.45;99504.66;4966211;28;20110;-74
2021/01/24 06:20:18;;;;;;;10.80;5.38;;;;;;;9.33;84.73;99502.81;4958434;28;20032;-75
2021/01/24 06:22:57;;;;;;;13.05;10.20;;;;;;;9.28;85.29;99513.81;4945920;28;20023;-72
2021/01/24 06:25:31;;;;;;;12.05;7.82;;;;;;;9.28;85.45;99517.25;4943244;29;20398;-72
2021/01/24 06:28:06;;;;;;;7.68;4.85;;;;;;;9.25;85.33;99503.44;4945681;28;20059;-73
2021/01/24 06:30:33;;;;;;;8.38;5.13;;;;;;;8.83;86.01;99458.53;4949233;28;20550;-72
2021/01/24 06:33:22;;;;;;;7.35;4.50;;;;;;;9.05;86.32;99498.63;4944141;28;20024;-73
2021/01/24 06:36:00;;;;;;;11.52;5.00;;;;;;;8.99;86.57;99499.31;4944043;29;20050;-70
2021/01/24 06:38:34;;;;;;;7.68;4.63;;;;;;;8.73;86.45;99460.88;4943639;29;20055;-73
2021/01/24 06:41:03;;;;;;;10.20;4.22;;;;;;;8.81;87.21;99493.66;4941916;29;20074;-70
2021/01/24 06:43:44;;;;;;;10.15;4.47;;;;;;;8.84;87.23;99509.19;4945072;28;20023;-72
2021/01/24 06:46:18;;;;;;;9.13;4.32;;;;;;;8.83;87.44;99508.31;4943337;29;20090;-74
2021/01/24 06:48:53;;;;;;;7.40;3.70;;;;;;;8.73;87.45;99489.19;4942620;29;20533;-73
2021/01/24 06:51:34;;;;;;;7.80;3.90;;;;;;;8.82;87.11;99506.59;4943982;28;20522;-73
2021/01/24 06:54:01;;;;;;;6.25;3.55;;;;;;;8.76;87.61;99498.69;4944177;28;20023;-73
2021/01/24 06:56:36;;;;;;;9.60;4.50;;;;;;;8.81;87.71;99502.25;4945241;28;20063;-74
2021/01/24 06:59:02;;;;;;;5.93;3.88;;;;;;;8.78;87.67;99494.44;4942079;29;20027;-70
2021/01/24 07:01:35;;;;;;;8.68;4.63;;;;;;;9.00;87.29;99503.63;4944986;28;20030;-72
2021/01/24 07:04:25;;;;;;;18.45;12.02;;;;;;;9.11;86.81;99515.94;4990488;28;20032;-74
2021/01/24 07:06:55;;;;;;;25.80;14.07;;;;;;;9.20;86.36;99526.50;4943940;29;20083;-73
2021/01/24 07:09:26;;;;;;;16.02;10.68;;;;;;;9.19;86.56;99538.47;4943855;29;20062;-72
2021/01/24 07:12:05;;;;;;;17.95;10.57;;;;;;;8.96;86.54;99535.28;4944073;28;20031;-72
2021/01/24 07:14:37;;;;;;;31.92;22.83;;;;;;;8.74;82.54;99546.66;4944053;29;20039;-73
2021/01/24 07:17:09;;;;;;;36.55;26.75;;;;;;;8.58;82.05;99558.19;4941872;29;20063;-72
2021/01/24 07:19:38;;;;;;;94.93;66.50;;;;;;;8.34;82.30;99560.88;4943736;28;20023;-73
2021/01/24 07:22:07;;;;;;;55.38;36.60;;;;;;;8.12;81.88;99573.00;4941680;29;20024;-73
2021/01/24 07:24:33;;;;;;;55.67;37.92;;;;;;;7.83;80.36;99564.38;4944077;28;20039;-73
2021/01/24 07:26:59;;;;;;;57.70;37.53;;;;;;;8.00;79.78;99570.94;4945651;29;20082;-72
2021/01/24 07:29:25;;;;;;;57.50;38.45;;;;;;;8.02;79.47;99583.84;4943910;29;20023;-72
2021/01/24 07:31:51;;;;;;;57.97;39.15;;;;;;;8.12;79.65;99595.28;4943989;28;20395;-73
2021/01/24 07:34:21;;;;;;;59.05;39.97;;;;;;;8.12;78.48;99591.00;4945179;29;20019;-71
2021/01/24 07:36:50;;;;;;;67.65;47.22;;;;;;;8.39;77.94;99580.75;4944374;29;20034;-74
2021/01/24 07:39:17;;;;;;;61.70;41.42;;;;;;;8.55;76.86;99561.53;4943343;28;20453;-74
2021/01/24 07:41:44;;;;;;;59.08;41.20;;;;;;;9.03;76.09;99598.09;4943692;29;20024;-74
2021/01/24 07:44:10;;;;;;;55.38;37.60;;;;;;;9.14;75.06;99596.72;4939068;28;20038;-76
2021/01/24 07:46:35;;;;;;;63.95;43.40;;;;;;;9.05;75.08;99605.03;4934851;29;20075;-70
2021/01/24 07:49:01;;;;;;;57.60;39.75;;;;;;;9.09;75.44;99610.31;4934734;29;20019;-71
2021/01/24 07:51:27;;;;;;;61.40;41.10;;;;;;;9.16;75.62;99610.50;4942517;29;20130;-71
2021/01/24 07:53:54;;;;;;;54.30;37.70;;;;;;;9.40;74.26;99591.44;4945012;29;20027;-72
2021/01/24 07:56:20;;;;;;;53.45;38.72;;;;;;;9.46;73.51;99546.91;4943204;29;20031;-71
2021/01/24 07:58:46;;;;;;;52.63;36.80;;;;;;;9.83;73.19;99594.25;4943565;28;20466;-71
2021/01/24 08:01:13;;;;;;;51.55;35.28;;;;;;;9.99;72.81;99605.84;4944531;29;20035;-71
2021/01/24 08:04:00;;;;;;;57.10;42.20;;;;;;;9.83;72.82;99607.16;4943134;29;20056;-71
2021/01/24 08:06:26;;;;;;;55.22;37.90;;;;;;;9.87;73.36;99614.16;4959465;28;20126;-71
2021/01/24 08:08:51;;;;;;;51.10;36.28;;;;;;;9.91;73.90;99615.97;4959722;28;20086;-73
2021/01/24 08:11:17;;;;;;;47.58;33.42;;;;;;;10.11;72.62;99602.72;4945292;28;20038;-70
2021/01/24 08:13:43;;;;;;;45.20;29.83;;;;;;;10.33;71.66;99596.34;4942529;28;20031;-74
2021/01/24 08:16:28;;;;;;;40.17;29.73;;;;;;;10.35;71.50;99590.41;4966577;28;20039;-71
2021/01/24 08:18:55;;;;;;;40.25;27.00;;;;;;;10.53;70.63;99599.44;4956509;28;20108;-70
2021/01/24 08:21:22;;;;;;;37.63;25.23;;;;;;;10.65;69.90;99601.41;4951366;29;20066;-70
2021/01/24 08:23:49;;;;;;;34.58;24.15;;;;;;;10.48;70.05;99570.94;4951276;29;20488;-72
2021/01/24 08:26:16;;;;;;;35.67;23.02;;;;;;;10.83;69.16;99619.06;4950952;29;20082;-75
2021/01/24 08:28:43;;;;;;;29.60;21.15;;;;;;;10.92;68.70;99615.78;4951125;29;20070;-73
2021/01/24 08:31:09;;;;;;;29.25;19.92;;;;;;;10.87;69.13;99623.44;4951248;29;20576;-78
2021/01/24 08:33:37;;;;;;;29.60;19.48;;;;;;;10.97;68.48;99619.34;4951104;29;20063;-73
2021/01/24 08:36:17;;;;;;;38.13;26.92;;;;;;;10.99;68.77;99610.78;4951108;28;20077;-75
2021/01/24 08:38:43;;;;;;;26.90;18.20;;;;;;;11.14;67.53;99618.00;4933990;29;20066;-73
2021/01/24 08:41:13;;;;;;;39.42;29.80;;;;;;;10.93;67.99;99582.25;4933958;29;20023;-74
2021/01/24 08:43:39;;;;;;;43.35;31.30;;;;;;;11.03;68.29;99605.66;4932939;29;20082;-75
2021/01/24 08:46:25;;;;;;;36.63;24.40;;;;;;;11.11;67.27;99571.41;4933150;29;20071;-75
2021/01/24 08:49:05;;;;;;;27.85;16.73;;;;;;;11.39;67.24;99599.50;4933638;29;20059;-75
2021/01/24 08:51:48;;;;;;;23.98;16.00;;;;;;;11.59;67.06;99600.78;4932983;29;20031;-73
2021/01/24 08:54:27;;;;;;;26.70;16.38;;;;;;;11.65;66.71;99584.50;4933616;29;20024;-73
2021/01/24 08:57:09;;;;;;;20.83;12.07;;;;;;;11.81;65.98;99591.72;4933969;29;20023;-73
2021/01/24 08:59:35;;;;;;;20.40;11.52;;;;;;;11.54;66.44;99588.59;4933595;29;20039;-74
2021/01/24 09:02:02;;;;;;;19.48;12.23;;;;;;;11.20;67.18;99541.44;4933707;29;20111;-75
2021/01/24 09:04:33;;;;;;;20.90;12.82;;;;;;;11.57;66.72;99591.25;4933240;29;20494;-71
2021/01/24 09:07:13;;;;;;;18.15;11.75;;;;;;;11.71;65.93;99610.47;4933607;29;20036;-71
2021/01/24 09:09:43;;;;;;;18.90;12.65;;;;;;;11.74;65.51;99569.16;4935779;29;20038;-71
2021/01/24 09:12:19;;;;;;;18.33;13.07;;;;;;;11.65;65.88;99556.06;4950440;28;20071;-71
2021/01/24 09:14:46;;;;;;;29.20;18.67;;;;;;;11.87;65.51;99582.31;4936978;29;20106;-70
2021/01/24 09:17:20;;;;;;;22.17;13.55;;;;;;;12.01;64.28;99586.00;4936962;29;20034;-70
2021/01/24 09:19:47;;;;;;;19.55;12.98;;;;;;;12.01;64.38;99567.91;4936986;29;20051;-74
2021/01/24 09:22:15;;;;;;;19.52;13.18;;;;;;;11.91;64.82;99543.59;4937351;29;20030;-70
2021/01/24 09:24:41;;;;;;;18.85;13.82;;;;;;;12.13;64.30;99582.78;4936809;29;20078;-74
2021/01/24 09:27:08;;;;;;;15.38;11.40;;;;;;;12.18;63.58;99573.38;4937440;29;20033;-76
2021/01/24 09:29:35;;;;;;;28.05;17.20;;;;;;;12.34;62.77;99574.47;4936923;29;20048;-73
2021/01/24 09:32:01;;;;;;;36.90;30.10;;;;;;;12.38;60.97;99534.84;4937012;29;20039;-72
2021/01/24 09:34:27;;;;;;;15.07;9.90;;;;;;;12.89;58.82;99561.44;4937436;29;20546;-76
2021/01/24 09:36:53;;;;;;;12.80;8.70;;;;;;;13.00;58.98;99563.31;4936998;29;20114;-70
2021/01/24 09:39:18;;;;;;;16.10;11.82;;;;;;;12.60;59.31;99527.41;4936282;29;20502;-76
2021/01/24 09:41:44;;;;;;;19.85;13.93;;;;;;;12.67;59.33;99530.94;4936717;29;20032;-73
2021/01/24 09:44:10;;;;;;;74.13;59.13;;;;;;;12.77;58.62;99551.78;4951660;28;20082;-74
2021/01/24 09:46:35;;;;;;;12.77;8.68;;;;;;;12.78;59.21;99560.41;4936043;29;20126;-74
2021/01/24 09:49:02;;;;;;;20.90;12.40;;;;;;;12.72;58.78;99519.78;4951802;29;20039;-77
2021/01/24 09:51:27;;;;;;;11.60;7.07;;;;;;;12.69;58.09;99521.47;4936958;29;20028;-74
2021/01/24 09:53:56;;;;;;;15.48;11.25;;;;;;;12.96;56.55;99557.22;4936833;29;20500;-78
2021/01/24 09:56:22;;;;;;;9.33;5.53;;;;;;;12.81;54.99;99546.63;4936894;29;20031;-73
2021/01/24 09:58:48;;;;;;;17.35;12.63;;;;;;;13.10;55.64;99549.59;4937157;29;20039;-74
2021/01/24 10:01:14;;;;;;;12.63;7.32;;;;;;;13.51;54.24;99540.59;4936255;29;20031;-73
2021/01/24 10:03:40;;;;;;;10.88;6.53;;;;;;;13.91;52.73;99535.75;4937758;29;20099;-72
2021/01/24 10:06:06;;;;;;;8.13;5.13;;;;;;;13.91;51.39;99512.41;4936700;29;20482;-72
2021/01/24 10:08:32;;;;;;;9.00;5.25;;;;;;;14.14;50.89;99537.66;4936216;29;20031;-72
2021/01/24 10:10:59;;;;;;;25.63;18.48;;;;;;;14.13;52.34;99541.97;4936792;29;20111;-73
2021/01/24 10:13:24;;;;;;;10.93;7.43;;;;;;;14.05;52.93;99538.44;4936876;29;20087;-72
2021/01/24 10:15:51;;;;;;;9.65;5.45;;;;;;;14.25;49.57;99533.41;4936756;29;20572;-73
2021/01/24 10:18:18;;;;;;;43.15;34.53;;;;;;;14.15;49.67;99523.81;4936686;29;20035;-74
2021/01/24 10:20:44;;;;;;;11.85;8.48;;;;;;;14.27;48.29;99523.91;4966481;28;20066;-74
2021/01/24 10:23:10;;;;;;;7.80;3.38;;;;;;;13.98;48.88;99523.69;4936206;29;20036;-72
2021/01/24 10:25:36;;;;;;;10.73;6.47;;;;;;;13.77;49.75;99506.22;4935296;29;20035;-74
2021/01/24 10:28:01;;;;;;;12.93;9.48;;;;;;;14.04;50.75;99532.41;4936594;28;20470;-78
2021/01/24 10:30:27;;;;;;;9.57;7.85;;;;;;;14.29;50.38;99521.31;4936518;29;20493;-74
2021/01/24 10:32:52;;;;;;;7.95;5.32;;;;;;;14.42;50.13;99523.13;4936038;29;20493;-73
2021/01/24 10:35:20;;;;;;;8.13;4.88;;;;;;;14.43;50.98;99514.50;4936193;29;20048;-73
2021/01/24 10:37:46;;;;;;;7.15;4.40;;;;;;;14.70;50.10;99526.78;4936328;29;20063;-74
2021/01/24 10:40:12;;;;;;;9.07;4.63;;;;;;;14.61;51.34;99533.63;4936293;29;20497;-74
2021/01/24 10:42:38;;;;;;;14.30;7.65;;;;;;;14.78;50.79;99526.81;4935175;29;20035;-74
2021/01/24 10:45:06;;;;;;;8.77;5.70;;;;;;;14.66;51.30;99521.56;4936227;29;20494;-74
2021/01/24 10:47:32;;;;;;;10.60;5.93;;;;;;;14.68;51.06;99522.44;4936173;29;20039;-74
2021/01/24 10:49:57;;;;;;;8.52;5.72;;;;;;;14.61;51.45;99516.31;4935848;28;20027;-73
2021/01/24 10:52:23;;;;;;;8.30;5.25;;;;;;;14.81;50.79;99508.63;4935903;29;20122;-77
2021/01/24 10:54:48;;;;;;;7.25;3.97;;;;;;;14.90;49.82;99513.00;4935954;28;20486;-74
2021/01/24 10:57:14;;;;;;;7.00;3.70;;;;;;;15.07;48.98;99523.47;4950422;28;20042;-74
2021/01/24 10:59:39;;;;;;;6.80;3.00;;;;;;;14.86;48.68;99478.31;4935767;29;20027;-76
2021/01/24 11:02:08;;;;;;;6.25;2.80;;;;;;;15.37;47.54;99522.66;4935490;28;20056;-77
2021/01/24 11:04:33;;;;;;;5.15;3.03;;;;;;;15.43;45.83;99485.41;4937786;29;20114;-76
2021/01/24 11:07:00;;;;;;;6.68;3.17;;;;;;;15.68;44.59;99514.06;4943735;29;20553;-77
2021/01/24 11:09:26;;;;;;;4.47;2.05;;;;;;;15.71;44.66;99515.78;4944911;28;20023;-77
2021/01/24 11:11:51;;;;;;;5.55;2.65;;;;;;;15.60;44.73;99519.25;4943201;29;20038;-75
2021/01/24 11:14:17;;;;;;;6.20;3.55;;;;;;;15.24;47.26;99452.44;4945636;29;20020;-77
2021/01/24 11:16:43;;;;;;;7.22;4.47;;;;;;;14.65;50.29;99525.00;4943701;28;20019;-75
2021/01/24 11:19:08;;;;;;;8.45;5.80;;;;;;;14.85;50.04;99522.50;4944980;28;20031;-76
2021/01/24 11:21:33;;;;;;;8.82;4.40;;;;;;;15.09;48.88;99513.06;4944923;28;20032;-75
2021/01/24 11:23:59;;;;;;;5.32;2.00;;;;;;;15.39;45.96;99498.41;4943622;28;20097;-75
2021/01/24 11:26:25;;;;;;;4.05;2.00;;;;;;;15.77;44.56;99516.66;4945954;28;20031;-74
2021/01/24 11:28:51;;;;;;;5.68;2.20;;;;;;;15.96;43.59;99522.78;4947096;28;20494;-73
2021/01/24 11:31:16;;;;;;;4.43;2.22;;;;;;;15.96;43.02;99527.09;4936776;28;20067;-73
2021/01/24 11:33:44;;;;;;;5.45;1.90;;;;;;;15.85;42.27;99527.97;4934473;29;20031;-77
2021/01/24 11:36:09;;;;;;;4.10;2.20;;;;;;;15.91;42.34;99519.28;4944811;29;20035;-73